sensor_id;sensor_type;location;lat;lon;timestamp;P1;durP1;ratioP1;P2;durP2;ratioP2
20623;SDS011;10471;42.736;23.346;2022-12-18T00:01:40;18.30;;;12.50;;
20623;SDS011;10471;42.736;23.346;2022-12-18T00:04:06;17.60;;;11.60;;
20623;SDS011;10471;42.736;23.346;2022-12-18T00:06:40;17.10;;;11.77;;
20623;SDS011;10471;42.736;23.346;2022-12-18T00:09:05;20.27;;;12.67;;
20623;SDS011;10471;42.736;23.346;2022-12-18T00:11:31;18.83;;;13.70;;
20623;SDS011;10471;42.736;23.346;2022-12-18T00:13:57;18.53;;;12.47;;
20623;SDS011;10471;42.736;23.346;2022-12-18T00:16:24;17.23;;;12.63;;
20623;SDS011;10471;42.736;23.346;2022-12-18T00:18:52;19.63;;;12.30;;
20623;SDS011;10471;42.736;23.346;2022-12-18T00:21:20;17.20;;;12.93;;
20623;SDS011;10471;42.736;23.346;2022-12-18T00:23:46;19.77;;;13.73;;
20623;SDS011;10471;42.736;23.346;2022-12-18T00:26:31;17.20;;;12.97;;
20623;SDS011;10471;42.736;23.346;2022-12-18T00:28:58;20.40;;;12.30;;
20623;SDS011;10471;42.736;23.346;2022-12-18T00:31:29;19.13;;;11.50;;
20623;SDS011;10471;42.736;23.346;2022-12-18T00:33:54;19.03;;;13.43;;
20623;SDS011;10471;42.736;23.346;2022-12-18T00:36:22;20.80;;;13.70;;
20623;SDS011;10471;42.736;23.346;2022-12-18T00:38:49;20.40;;;14.43;;
20623;SDS011;10471;42.736;23.346;2022-12-18T00:41:15;19.50;;;12.93;;
20623;SDS011;10471;42.736;23.346;2022-12-18T00:44:02;19.50;;;13.93;;
20623;SDS011;10471;42.736;23.346;2022-12-18T00:46:28;20.87;;;14.50;;
20623;SDS011;10471;42.736;23.346;2022-12-18T00:48:54;19.67;;;13.17;;
20623;SDS011;10471;42.736;23.346;2022-12-18T00:51:19;20.70;;;13.47;;
20623;SDS011;10471;42.736;23.346;2022-12-18T00:53:44;21.03;;;14.20;;
20623;SDS011;10471;42.736;23.346;2022-12-18T00:56:10;20.43;;;14.20;;
20623;SDS011;10471;42.736;23.346;2022-12-18T00:58:35;18.97;;;13.27;;
20623;SDS011;10471;42.736;23.346;2022-12-18T01:01:00;18.60;;;12.57;;
20623;SDS011;10471;42.736;23.346;2022-12-18T01:03:26;18.57;;;12.40;;
20623;SDS011;10471;42.736;23.346;2022-12-18T01:05:51;22.27;;;12.93;;
20623;SDS011;10471;42.736;23.346;2022-12-18T01:08:17;21.93;;;12.30;;
20623;SDS011;10471;42.736;23.346;2022-12-18T01:10:42;23.20;;;14.00;;
20623;SDS011;10471;42.736;23.346;2022-12-18T01:13:07;20.13;;;11.97;;
20623;SDS011;10471;42.736;23.346;2022-12-18T01:15:33;19.97;;;12.83;;
20623;SDS011;10471;42.736;23.346;2022-12-18T01:17:58;24.30;;;13.13;;
20623;SDS011;10471;42.736;23.346;2022-12-18T01:20:24;23.57;;;14.70;;
20623;SDS011;10471;42.736;23.346;2022-12-18T01:22:49;20.97;;;14.40;;
20623;SDS011;10471;42.736;23.346;2022-12-18T01:25:14;20.50;;;13.33;;
20623;SDS011;10471;42.736;23.346;2022-12-18T01:27:40;19.03;;;13.77;;
20623;SDS011;10471;42.736;23.346;2022-12-18T01:30:05;18.40;;;12.37;;
20623;SDS011;10471;42.736;23.346;2022-12-18T01:32:32;19.20;;;12.90;;
20623;SDS011;10471;42.736;23.346;2022-12-18T01:34:57;19.23;;;13.00;;
20623;SDS011;10471;42.736;23.346;2022-12-18T01:37:22;18.97;;;12.47;;
20623;SDS011;10471;42.736;23.346;2022-12-18T01:39:48;20.63;;;13.70;;
20623;SDS011;10471;42.736;23.346;2022-12-18T01:42:14;21.17;;;14.57;;
20623;SDS011;10471;42.736;23.346;2022-12-18T01:49:58;19.47;;;13.37;;
20623;SDS011;10471;42.736;23.346;2022-12-18T01:52:27;20.43;;;13.73;;
20623;SDS011;10471;42.736;23.346;2022-12-18T01:54:55;23.43;;;14.73;;
20623;SDS011;10471;42.736;23.346;2022-12-18T01:57:22;21.97;;;14.07;;
20623;SDS011;10471;42.736;23.346;2022-12-18T01:59:49;19.40;;;12.43;;
20623;SDS011;10471;42.736;23.346;2022-12-18T02:02:17;22.00;;;14.90;;
20623;SDS011;10471;42.736;23.346;2022-12-18T02:04:44;21.43;;;13.97;;
20623;SDS011;10471;42.736;23.346;2022-12-18T02:15:27;18.30;;;11.70;;
20623;SDS011;10471;42.736;23.346;2022-12-18T02:26:26;17.50;;;12.43;;
20623;SDS011;10471;42.736;23.346;2022-12-18T02:28:54;17.50;;;11.87;;
20623;SDS011;10471;42.736;23.346;2022-12-18T02:31:25;18.27;;;11.93;;
20623;SDS011;10471;42.736;23.346;2022-12-18T02:33:59;27.63;;;14.07;;
20623;SDS011;10471;42.736;23.346;2022-12-18T02:36:27;15.67;;;10.83;;
20623;SDS011;10471;42.736;23.346;2022-12-18T02:38:54;13.63;;;10.47;;
20623;SDS011;10471;42.736;23.346;2022-12-18T02:41:24;18.00;;;11.50;;
20623;SDS011;10471;42.736;23.346;2022-12-18T02:43:55;20.13;;;12.30;;
20623;SDS011;10471;42.736;23.346;2022-12-18T02:46:27;16.27;;;11.77;;
20623;SDS011;10471;42.736;23.346;2022-12-18T02:48:57;20.10;;;11.53;;
20623;SDS011;10471;42.736;23.346;2022-12-18T03:00:53;21.37;;;11.90;;
20623;SDS011;10471;42.736;23.346;2022-12-18T03:03:31;18.37;;;11.67;;
20623;SDS011;10471;42.736;23.346;2022-12-18T03:06:04;16.77;;;10.57;;
20623;SDS011;10471;42.736;23.346;2022-12-18T03:08:36;15.90;;;10.80;;
20623;SDS011;10471;42.736;23.346;2022-12-18T03:11:07;16.87;;;11.40;;
20623;SDS011;10471;42.736;23.346;2022-12-18T03:13:35;17.57;;;11.67;;
20623;SDS011;10471;42.736;23.346;2022-12-18T03:16:06;16.63;;;12.40;;
20623;SDS011;10471;42.736;23.346;2022-12-18T03:18:37;19.43;;;13.67;;
20623;SDS011;10471;42.736;23.346;2022-12-18T03:21:08;20.60;;;12.83;;
20623;SDS011;10471;42.736;23.346;2022-12-18T03:23:39;20.63;;;12.97;;
20623;SDS011;10471;42.736;23.346;2022-12-18T03:26:09;19.37;;;12.83;;
20623;SDS011;10471;42.736;23.346;2022-12-18T03:28:38;20.47;;;13.63;;
20623;SDS011;10471;42.736;23.346;2022-12-18T03:31:07;20.27;;;13.77;;
20623;SDS011;10471;42.736;23.346;2022-12-18T03:33:47;18.13;;;12.03;;
20623;SDS011;10471;42.736;23.346;2022-12-18T03:36:17;17.90;;;12.40;;
20623;SDS011;10471;42.736;23.346;2022-12-18T03:38:43;19.77;;;12.97;;
20623;SDS011;10471;42.736;23.346;2022-12-18T03:43:59;20.17;;;11.93;;
20623;SDS011;10471;42.736;23.346;2022-12-18T03:46:37;19.87;;;12.30;;
20623;SDS011;10471;42.736;23.346;2022-12-18T03:54:56;16.83;;;11.37;;
20623;SDS011;10471;42.736;23.346;2022-12-18T03:57:25;20.37;;;13.50;;
20623;SDS011;10471;42.736;23.346;2022-12-18T03:59:55;19.70;;;12.87;;
20623;SDS011;10471;42.736;23.346;2022-12-18T04:02:24;18.90;;;12.73;;
20623;SDS011;10471;42.736;23.346;2022-12-18T04:04:51;22.23;;;13.13;;
20623;SDS011;10471;42.736;23.346;2022-12-18T04:07:21;19.53;;;12.70;;
20623;SDS011;10471;42.736;23.346;2022-12-18T04:09:48;20.60;;;13.43;;
20623;SDS011;10471;42.736;23.346;2022-12-18T04:12:15;21.57;;;13.43;;
20623;SDS011;10471;42.736;23.346;2022-12-18T04:14:40;24.33;;;15.30;;
20623;SDS011;10471;42.736;23.346;2022-12-18T04:17:06;23.47;;;15.03;;
20623;SDS011;10471;42.736;23.346;2022-12-18T04:19:31;23.53;;;14.70;;
20623;SDS011;10471;42.736;23.346;2022-12-18T04:21:56;22.23;;;14.27;;
20623;SDS011;10471;42.736;23.346;2022-12-18T04:24:22;21.67;;;14.13;;
20623;SDS011;10471;42.736;23.346;2022-12-18T04:26:47;23.77;;;15.57;;
20623;SDS011;10471;42.736;23.346;2022-12-18T04:29:13;22.33;;;14.93;;
20623;SDS011;10471;42.736;23.346;2022-12-18T04:31:38;24.73;;;15.77;;
20623;SDS011;10471;42.736;23.346;2022-12-18T04:34:03;25.20;;;16.03;;
20623;SDS011;10471;42.736;23.346;2022-12-18T04:36:29;27.33;;;15.70;;
20623;SDS011;10471;42.736;23.346;2022-12-18T04:38:55;26.77;;;15.87;;
20623;SDS011;10471;42.736;23.346;2022-12-18T04:41:20;26.63;;;16.37;;
20623;SDS011;10471;42.736;23.346;2022-12-18T04:43:45;26.93;;;16.30;;
20623;SDS011;10471;42.736;23.346;2022-12-18T04:46:11;30.50;;;16.80;;
20623;SDS011;10471;42.736;23.346;2022-12-18T04:48:36;25.73;;;16.20;;
20623;SDS011;10471;42.736;23.346;2022-12-18T04:51:03;27.67;;;17.33;;
20623;SDS011;10471;42.736;23.346;2022-12-18T04:53:29;27.10;;;17.67;;
20623;SDS011;10471;42.736;23.346;2022-12-18T04:56:08;26.50;;;17.23;;
20623;SDS011;10471;42.736;23.346;2022-12-18T04:58:36;25.53;;;16.33;;
20623;SDS011;10471;42.736;23.346;2022-12-18T05:01:02;29.23;;;16.60;;
20623;SDS011;10471;42.736;23.346;2022-12-18T05:03:28;28.10;;;17.07;;
20623;SDS011;10471;42.736;23.346;2022-12-18T05:05:53;26.57;;;16.93;;
20623;SDS011;10471;42.736;23.346;2022-12-18T05:08:19;28.20;;;16.17;;
20623;SDS011;10471;42.736;23.346;2022-12-18T05:10:44;27.60;;;15.90;;
20623;SDS011;10471;42.736;23.346;2022-12-18T05:13:10;29.97;;;17.00;;
20623;SDS011;10471;42.736;23.346;2022-12-18T05:15:35;27.10;;;15.10;;
20623;SDS011;10471;42.736;23.346;2022-12-18T05:18:01;27.50;;;16.47;;
20623;SDS011;10471;42.736;23.346;2022-12-18T05:20:27;28.00;;;17.40;;
20623;SDS011;10471;42.736;23.346;2022-12-18T05:22:53;27.73;;;18.13;;
20623;SDS011;10471;42.736;23.346;2022-12-18T05:25:19;29.30;;;18.17;;
20623;SDS011;10471;42.736;23.346;2022-12-18T05:27:45;28.10;;;16.33;;
20623;SDS011;10471;42.736;23.346;2022-12-18T05:30:10;28.77;;;18.93;;
20623;SDS011;10471;42.736;23.346;2022-12-18T05:32:36;34.30;;;18.80;;
20623;SDS011;10471;42.736;23.346;2022-12-18T05:35:02;30.43;;;17.33;;
20623;SDS011;10471;42.736;23.346;2022-12-18T05:37:27;28.93;;;18.20;;
20623;SDS011;10471;42.736;23.346;2022-12-18T05:39:53;29.40;;;17.13;;
20623;SDS011;10471;42.736;23.346;2022-12-18T05:42:18;33.07;;;19.23;;
20623;SDS011;10471;42.736;23.346;2022-12-18T05:44:44;30.10;;;19.00;;
20623;SDS011;10471;42.736;23.346;2022-12-18T05:47:09;30.17;;;19.07;;
20623;SDS011;10471;42.736;23.346;2022-12-18T05:49:34;32.47;;;19.17;;
20623;SDS011;10471;42.736;23.346;2022-12-18T05:52:00;35.97;;;19.33;;
20623;SDS011;10471;42.736;23.346;2022-12-18T05:54:28;31.83;;;19.07;;
20623;SDS011;10471;42.736;23.346;2022-12-18T05:56:54;34.57;;;19.23;;
20623;SDS011;10471;42.736;23.346;2022-12-18T05:59:19;32.30;;;18.13;;
20623;SDS011;10471;42.736;23.346;2022-12-18T06:01:45;29.40;;;18.27;;
20623;SDS011;10471;42.736;23.346;2022-12-18T06:04:11;30.47;;;17.30;;
20623;SDS011;10471;42.736;23.346;2022-12-18T06:06:36;31.87;;;19.57;;
20623;SDS011;10471;42.736;23.346;2022-12-18T06:09:02;31.77;;;18.77;;
20623;SDS011;10471;42.736;23.346;2022-12-18T06:11:33;30.70;;;17.87;;
20623;SDS011;10471;42.736;23.346;2022-12-18T06:13:59;26.40;;;15.70;;
20623;SDS011;10471;42.736;23.346;2022-12-18T06:16:25;33.73;;;18.37;;
20623;SDS011;10471;42.736;23.346;2022-12-18T06:18:51;32.57;;;20.23;;
20623;SDS011;10471;42.736;23.346;2022-12-18T06:21:17;30.87;;;17.50;;
20623;SDS011;10471;42.736;23.346;2022-12-18T06:23:42;27.60;;;18.50;;
20623;SDS011;10471;42.736;23.346;2022-12-18T06:26:09;34.73;;;18.70;;
20623;SDS011;10471;42.736;23.346;2022-12-18T06:28:36;30.97;;;18.53;;
20623;SDS011;10471;42.736;23.346;2022-12-18T06:31:02;30.47;;;18.67;;
20623;SDS011;10471;42.736;23.346;2022-12-18T06:33:29;37.00;;;19.07;;
20623;SDS011;10471;42.736;23.346;2022-12-18T06:35:59;30.33;;;17.40;;
20623;SDS011;10471;42.736;23.346;2022-12-18T06:38:29;30.50;;;18.10;;
20623;SDS011;10471;42.736;23.346;2022-12-18T06:40:56;34.13;;;19.53;;
20623;SDS011;10471;42.736;23.346;2022-12-18T06:43:21;27.30;;;17.03;;
20623;SDS011;10471;42.736;23.346;2022-12-18T06:45:47;33.17;;;20.53;;
20623;SDS011;10471;42.736;23.346;2022-12-18T06:48:17;31.07;;;17.10;;
20623;SDS011;10471;42.736;23.346;2022-12-18T06:50:46;35.07;;;20.13;;
20623;SDS011;10471;42.736;23.346;2022-12-18T06:53:11;32.57;;;20.07;;
20623;SDS011;10471;42.736;23.346;2022-12-18T06:55:37;33.10;;;20.63;;
20623;SDS011;10471;42.736;23.346;2022-12-18T06:58:02;35.27;;;19.93;;
20623;SDS011;10471;42.736;23.346;2022-12-18T07:00:28;33.53;;;20.60;;
20623;SDS011;10471;42.736;23.346;2022-12-18T07:02:53;42.33;;;20.97;;
20623;SDS011;10471;42.736;23.346;2022-12-18T07:05:18;32.87;;;19.40;;
20623;SDS011;10471;42.736;23.346;2022-12-18T07:07:44;39.07;;;21.63;;
20623;SDS011;10471;42.736;23.346;2022-12-18T07:10:09;39.23;;;21.73;;
20623;SDS011;10471;42.736;23.346;2022-12-18T07:12:35;43.23;;;22.30;;
20623;SDS011;10471;42.736;23.346;2022-12-18T07:15:00;39.80;;;19.10;;
20623;SDS011;10471;42.736;23.346;2022-12-18T07:17:26;35.03;;;19.77;;
20623;SDS011;10471;42.736;23.346;2022-12-18T07:19:51;36.27;;;19.47;;
20623;SDS011;10471;42.736;23.346;2022-12-18T07:22:17;36.97;;;20.37;;
20623;SDS011;10471;42.736;23.346;2022-12-18T07:24:42;35.27;;;17.17;;
20623;SDS011;10471;42.736;23.346;2022-12-18T07:27:07;35.23;;;17.40;;
20623;SDS011;10471;42.736;23.346;2022-12-18T07:29:33;32.33;;;18.97;;
20623;SDS011;10471;42.736;23.346;2022-12-18T07:31:58;29.40;;;16.50;;
20623;SDS011;10471;42.736;23.346;2022-12-18T07:34:23;32.60;;;18.93;;
20623;SDS011;10471;42.736;23.346;2022-12-18T07:36:49;30.90;;;18.83;;
20623;SDS011;10471;42.736;23.346;2022-12-18T07:39:14;36.73;;;20.43;;
20623;SDS011;10471;42.736;23.346;2022-12-18T07:41:40;33.90;;;20.20;;
20623;SDS011;10471;42.736;23.346;2022-12-18T07:44:11;37.17;;;20.40;;
20623;SDS011;10471;42.736;23.346;2022-12-18T07:46:37;33.17;;;19.80;;
20623;SDS011;10471;42.736;23.346;2022-12-18T07:49:03;29.07;;;17.23;;
20623;SDS011;10471;42.736;23.346;2022-12-18T07:51:29;39.73;;;19.03;;
20623;SDS011;10471;42.736;23.346;2022-12-18T07:53:54;33.17;;;20.90;;
20623;SDS011;10471;42.736;23.346;2022-12-18T07:56:20;36.37;;;19.90;;
20623;SDS011;10471;42.736;23.346;2022-12-18T07:58:46;31.80;;;18.87;;
20623;SDS011;10471;42.736;23.346;2022-12-18T08:01:12;33.70;;;20.57;;
20623;SDS011;10471;42.736;23.346;2022-12-18T08:03:38;36.27;;;20.60;;
20623;SDS011;10471;42.736;23.346;2022-12-18T08:06:05;34.23;;;21.87;;
20623;SDS011;10471;42.736;23.346;2022-12-18T08:08:33;34.87;;;21.50;;
20623;SDS011;10471;42.736;23.346;2022-12-18T08:10:59;33.47;;;20.13;;
20623;SDS011;10471;42.736;23.346;2022-12-18T08:13:25;38.90;;;21.87;;
20623;SDS011;10471;42.736;23.346;2022-12-18T08:18:27;34.33;;;20.00;;
20623;SDS011;10471;42.736;23.346;2022-12-18T08:20:53;36.20;;;19.20;;
20623;SDS011;10471;42.736;23.346;2022-12-18T08:23:19;35.70;;;20.30;;
20623;SDS011;10471;42.736;23.346;2022-12-18T08:25:44;42.57;;;22.77;;
20623;SDS011;10471;42.736;23.346;2022-12-18T08:28:10;38.03;;;21.47;;
20623;SDS011;10471;42.736;23.346;2022-12-18T08:30:36;41.90;;;21.10;;
20623;SDS011;10471;42.736;23.346;2022-12-18T08:33:02;38.43;;;19.70;;
20623;SDS011;10471;42.736;23.346;2022-12-18T08:35:28;34.50;;;20.13;;
20623;SDS011;10471;42.736;23.346;2022-12-18T08:37:53;31.90;;;20.07;;
20623;SDS011;10471;42.736;23.346;2022-12-18T08:40:18;33.33;;;18.93;;
20623;SDS011;10471;42.736;23.346;2022-12-18T08:42:44;35.50;;;18.23;;
20623;SDS011;10471;42.736;23.346;2022-12-18T08:45:27;27.97;;;16.40;;
20623;SDS011;10471;42.736;23.346;2022-12-18T08:47:53;33.47;;;18.50;;
20623;SDS011;10471;42.736;23.346;2022-12-18T08:50:18;35.50;;;19.83;;
20623;SDS011;10471;42.736;23.346;2022-12-18T08:52:44;35.97;;;20.50;;
20623;SDS011;10471;42.736;23.346;2022-12-18T08:55:10;32.03;;;18.70;;
20623;SDS011;10471;42.736;23.346;2022-12-18T08:57:35;29.77;;;19.90;;
20623;SDS011;10471;42.736;23.346;2022-12-18T09:00:01;35.80;;;19.77;;
20623;SDS011;10471;42.736;23.346;2022-12-18T09:02:27;33.73;;;17.43;;
20623;SDS011;10471;42.736;23.346;2022-12-18T09:04:52;31.50;;;17.83;;
20623;SDS011;10471;42.736;23.346;2022-12-18T09:07:17;35.90;;;19.10;;
20623;SDS011;10471;42.736;23.346;2022-12-18T09:09:43;37.07;;;20.50;;
20623;SDS011;10471;42.736;23.346;2022-12-18T09:12:08;46.97;;;22.53;;
20623;SDS011;10471;42.736;23.346;2022-12-18T09:14:34;36.53;;;20.53;;
20623;SDS011;10471;42.736;23.346;2022-12-18T09:16:59;38.10;;;21.73;;
20623;SDS011;10471;42.736;23.346;2022-12-18T09:19:24;41.27;;;23.13;;
20623;SDS011;10471;42.736;23.346;2022-12-18T09:21:50;30.30;;;18.03;;
20623;SDS011;10471;42.736;23.346;2022-12-18T09:24:15;40.70;;;23.47;;
20623;SDS011;10471;42.736;23.346;2022-12-18T09:26:41;40.60;;;22.93;;
20623;SDS011;10471;42.736;23.346;2022-12-18T09:29:07;36.97;;;21.53;;
20623;SDS011;10471;42.736;23.346;2022-12-18T09:31:32;38.47;;;21.57;;
20623;SDS011;10471;42.736;23.346;2022-12-18T09:33:58;41.53;;;22.93;;
20623;SDS011;10471;42.736;23.346;2022-12-18T09:36:24;40.73;;;24.43;;
20623;SDS011;10471;42.736;23.346;2022-12-18T09:38:49;38.17;;;19.80;;
20623;SDS011;10471;42.736;23.346;2022-12-18T09:44:05;46.83;;;25.60;;
20623;SDS011;10471;42.736;23.346;2022-12-18T09:47:04;39.27;;;20.17;;
20623;SDS011;10471;42.736;23.346;2022-12-18T09:49:46;38.50;;;20.80;;
20623;SDS011;10471;42.736;23.346;2022-12-18T09:52:19;32.83;;;18.47;;
20623;SDS011;10471;42.736;23.346;2022-12-18T09:54:55;38.80;;;20.60;;
20623;SDS011;10471;42.736;23.346;2022-12-18T09:57:23;37.27;;;20.10;;
20623;SDS011;10471;42.736;23.346;2022-12-18T09:59:54;38.17;;;21.70;;
20623;SDS011;10471;42.736;23.346;2022-12-18T10:02:24;41.47;;;22.27;;
20623;SDS011;10471;42.736;23.346;2022-12-18T10:05:05;38.07;;;19.67;;
20623;SDS011;10471;42.736;23.346;2022-12-18T10:07:55;33.73;;;19.27;;
20623;SDS011;10471;42.736;23.346;2022-12-18T10:10:38;32.43;;;19.57;;
20623;SDS011;10471;42.736;23.346;2022-12-18T10:15:53;36.20;;;20.17;;
20623;SDS011;10471;42.736;23.346;2022-12-18T10:18:32;34.03;;;19.70;;
20623;SDS011;10471;42.736;23.346;2022-12-18T10:21:11;30.70;;;18.80;;
20623;SDS011;10471;42.736;23.346;2022-12-18T10:23:45;34.60;;;20.77;;
20623;SDS011;10471;42.736;23.346;2022-12-18T10:26:22;29.43;;;17.20;;
20623;SDS011;10471;42.736;23.346;2022-12-18T10:28:48;32.60;;;19.30;;
20623;SDS011;10471;42.736;23.346;2022-12-18T10:31:16;34.97;;;18.43;;
20623;SDS011;10471;42.736;23.346;2022-12-18T10:33:42;35.50;;;20.97;;
20623;SDS011;10471;42.736;23.346;2022-12-18T10:36:08;40.47;;;22.40;;
20623;SDS011;10471;42.736;23.346;2022-12-18T10:38:34;34.87;;;20.50;;
20623;SDS011;10471;42.736;23.346;2022-12-18T10:41:00;37.33;;;21.60;;
20623;SDS011;10471;42.736;23.346;2022-12-18T10:46:14;63.77;;;32.60;;
20623;SDS011;10471;42.736;23.346;2022-12-18T10:53:54;85.30;;;42.40;;
20623;SDS011;10471;42.736;23.346;2022-12-18T10:56:28;58.10;;;30.53;;
20623;SDS011;10471;42.736;23.346;2022-12-18T10:58:57;43.63;;;23.17;;
20623;SDS011;10471;42.736;23.346;2022-12-18T11:04:15;42.50;;;24.40;;
20623;SDS011;10471;42.736;23.346;2022-12-18T11:06:53;44.87;;;24.90;;
20623;SDS011;10471;42.736;23.346;2022-12-18T11:09:27;36.00;;;21.87;;
20623;SDS011;10471;42.736;23.346;2022-12-18T11:12:00;34.53;;;19.63;;
20623;SDS011;10471;42.736;23.346;2022-12-18T11:14:42;29.03;;;17.30;;
20623;SDS011;10471;42.736;23.346;2022-12-18T11:17:21;34.27;;;19.77;;
20623;SDS011;10471;42.736;23.346;2022-12-18T11:22:32;35.63;;;19.93;;
20623;SDS011;10471;42.736;23.346;2022-12-18T11:27:37;32.83;;;19.00;;
20623;SDS011;10471;42.736;23.346;2022-12-18T11:33:10;30.87;;;19.40;;
20623;SDS011;10471;42.736;23.346;2022-12-18T11:35:47;34.57;;;18.30;;
20623;SDS011;10471;42.736;23.346;2022-12-18T11:43:40;31.87;;;19.50;;
20623;SDS011;10471;42.736;23.346;2022-12-18T11:51:38;29.93;;;17.43;;
20623;SDS011;10471;42.736;23.346;2022-12-18T11:54:13;34.23;;;19.60;;
20623;SDS011;10471;42.736;23.346;2022-12-18T11:56:48;33.40;;;19.13;;
20623;SDS011;10471;42.736;23.346;2022-12-18T12:09:57;39.60;;;22.50;;
20623;SDS011;10471;42.736;23.346;2022-12-18T12:26:03;37.20;;;19.93;;
20623;SDS011;10471;42.736;23.346;2022-12-18T12:39:26;34.60;;;20.23;;
20623;SDS011;10471;42.736;23.346;2022-12-18T12:41:55;43.13;;;24.13;;
20623;SDS011;10471;42.736;23.346;2022-12-18T12:44:42;27.40;;;16.50;;
20623;SDS011;10471;42.736;23.346;2022-12-18T12:47:16;38.00;;;21.17;;
20623;SDS011;10471;42.736;23.346;2022-12-18T12:49:47;30.27;;;17.03;;
20623;SDS011;10471;42.736;23.346;2022-12-18T12:52:15;31.53;;;18.37;;
20623;SDS011;10471;42.736;23.346;2022-12-18T12:54:47;33.83;;;19.03;;
20623;SDS011;10471;42.736;23.346;2022-12-18T12:57:24;33.17;;;18.17;;
20623;SDS011;10471;42.736;23.346;2022-12-18T13:00:17;28.00;;;17.17;;
20623;SDS011;10471;42.736;23.346;2022-12-18T13:08:27;36.97;;;20.00;;
20623;SDS011;10471;42.736;23.346;2022-12-18T13:10:54;32.90;;;17.53;;
20623;SDS011;10471;42.736;23.346;2022-12-18T13:13:51;36.07;;;19.57;;
20623;SDS011;10471;42.736;23.346;2022-12-18T13:16:19;38.10;;;18.90;;
20623;SDS011;10471;42.736;23.346;2022-12-18T13:18:51;32.93;;;18.93;;
20623;SDS011;10471;42.736;23.346;2022-12-18T13:21:29;31.83;;;18.17;;
20623;SDS011;10471;42.736;23.346;2022-12-18T13:23:57;28.53;;;17.30;;
20623;SDS011;10471;42.736;23.346;2022-12-18T13:26:59;29.40;;;16.60;;
20623;SDS011;10471;42.736;23.346;2022-12-18T13:32:22;31.07;;;18.50;;
20623;SDS011;10471;42.736;23.346;2022-12-18T13:37:57;33.57;;;18.67;;
20623;SDS011;10471;42.736;23.346;2022-12-18T13:43:14;36.33;;;19.33;;
20623;SDS011;10471;42.736;23.346;2022-12-18T13:48:24;33.53;;;19.77;;
20623;SDS011;10471;42.736;23.346;2022-12-18T13:51:01;31.43;;;18.53;;
20623;SDS011;10471;42.736;23.346;2022-12-18T13:53:30;35.03;;;20.57;;
20623;SDS011;10471;42.736;23.346;2022-12-18T13:55:59;29.63;;;17.27;;
20623;SDS011;10471;42.736;23.346;2022-12-18T13:58:25;32.10;;;18.37;;
20623;SDS011;10471;42.736;23.346;2022-12-18T14:00:50;32.47;;;18.27;;
20623;SDS011;10471;42.736;23.346;2022-12-18T14:03:27;35.30;;;17.60;;
20623;SDS011;10471;42.736;23.346;2022-12-18T14:05:54;32.63;;;17.23;;
20623;SDS011;10471;42.736;23.346;2022-12-18T14:08:21;30.60;;;17.20;;
20623;SDS011;10471;42.736;23.346;2022-12-18T14:10:51;31.33;;;16.80;;
20623;SDS011;10471;42.736;23.346;2022-12-18T14:13:23;31.57;;;16.73;;
20623;SDS011;10471;42.736;23.346;2022-12-18T14:15:49;36.27;;;19.23;;
20623;SDS011;10471;42.736;23.346;2022-12-18T14:20:55;31.50;;;16.60;;
20623;SDS011;10471;42.736;23.346;2022-12-18T14:23:33;31.47;;;16.97;;
20623;SDS011;10471;42.736;23.346;2022-12-18T14:26:20;31.80;;;17.37;;
20623;SDS011;10471;42.736;23.346;2022-12-18T14:28:47;27.87;;;16.53;;
20623;SDS011;10471;42.736;23.346;2022-12-18T14:31:23;28.80;;;15.90;;
20623;SDS011;10471;42.736;23.346;2022-12-18T14:33:51;31.93;;;16.67;;
20623;SDS011;10471;42.736;23.346;2022-12-18T14:36:18;32.60;;;16.20;;
20623;SDS011;10471;42.736;23.346;2022-12-18T14:38:52;27.97;;;15.97;;
20623;SDS011;10471;42.736;23.346;2022-12-18T14:41:20;27.77;;;15.77;;
20623;SDS011;10471;42.736;23.346;2022-12-18T14:43:47;27.87;;;15.47;;
20623;SDS011;10471;42.736;23.346;2022-12-18T14:46:32;25.40;;;14.03;;
20623;SDS011;10471;42.736;23.346;2022-12-18T14:48:58;27.63;;;15.47;;
20623;SDS011;10471;42.736;23.346;2022-12-18T14:51:51;25.50;;;14.17;;
20623;SDS011;10471;42.736;23.346;2022-12-18T14:54:21;25.70;;;14.73;;
20623;SDS011;10471;42.736;23.346;2022-12-18T14:56:48;26.53;;;14.97;;
20623;SDS011;10471;42.736;23.346;2022-12-18T14:59:17;25.77;;;15.63;;
20623;SDS011;10471;42.736;23.346;2022-12-18T15:04:23;24.53;;;14.53;;
20623;SDS011;10471;42.736;23.346;2022-12-18T15:07:09;29.87;;;15.30;;
20623;SDS011;10471;42.736;23.346;2022-12-18T15:09:36;30.00;;;15.50;;
20623;SDS011;10471;42.736;23.346;2022-12-18T15:12:03;30.00;;;16.53;;
20623;SDS011;10471;42.736;23.346;2022-12-18T15:14:39;32.80;;;16.63;;
20623;SDS011;10471;42.736;23.346;2022-12-18T15:19:43;27.07;;;15.20;;
20623;SDS011;10471;42.736;23.346;2022-12-18T15:22:28;31.63;;;17.03;;
20623;SDS011;10471;42.736;23.346;2022-12-18T15:24:58;29.13;;;16.07;;
20623;SDS011;10471;42.736;23.346;2022-12-18T15:27:35;33.97;;;18.90;;
20623;SDS011;10471;42.736;23.346;2022-12-18T15:32:33;39.23;;;20.70;;
20623;SDS011;10471;42.736;23.346;2022-12-18T15:37:34;38.57;;;20.40;;
20623;SDS011;10471;42.736;23.346;2022-12-18T15:40:00;32.30;;;17.47;;
20623;SDS011;10471;42.736;23.346;2022-12-18T15:42:27;43.53;;;22.90;;
20623;SDS011;10471;42.736;23.346;2022-12-18T15:45:11;37.10;;;19.43;;
20623;SDS011;10471;42.736;23.346;2022-12-18T15:47:38;34.53;;;18.33;;
20623;SDS011;10471;42.736;23.346;2022-12-18T15:50:03;35.97;;;19.73;;
20623;SDS011;10471;42.736;23.346;2022-12-18T15:52:30;34.20;;;19.60;;
20623;SDS011;10471;42.736;23.346;2022-12-18T15:55:02;35.50;;;19.63;;
20623;SDS011;10471;42.736;23.346;2022-12-18T15:57:46;31.63;;;18.23;;
20623;SDS011;10471;42.736;23.346;2022-12-18T16:00:12;32.33;;;18.23;;
20623;SDS011;10471;42.736;23.346;2022-12-18T16:02:37;38.07;;;20.20;;
20623;SDS011;10471;42.736;23.346;2022-12-18T16:05:03;60.10;;;28.50;;
20623;SDS011;10471;42.736;23.346;2022-12-18T16:07:34;42.03;;;22.57;;
20623;SDS011;10471;42.736;23.346;2022-12-18T16:10:00;36.37;;;20.57;;
20623;SDS011;10471;42.736;23.346;2022-12-18T16:12:25;41.33;;;22.30;;
20623;SDS011;10471;42.736;23.346;2022-12-18T16:14:50;38.77;;;20.53;;
20623;SDS011;10471;42.736;23.346;2022-12-18T16:17:16;43.97;;;22.87;;
20623;SDS011;10471;42.736;23.346;2022-12-18T16:19:41;44.20;;;24.63;;
20623;SDS011;10471;42.736;23.346;2022-12-18T16:22:08;42.70;;;23.33;;
20623;SDS011;10471;42.736;23.346;2022-12-18T16:24:43;42.37;;;22.33;;
20623;SDS011;10471;42.736;23.346;2022-12-18T16:27:08;40.07;;;22.50;;
20623;SDS011;10471;42.736;23.346;2022-12-18T16:29:34;35.93;;;20.90;;
20623;SDS011;10471;42.736;23.346;2022-12-18T16:31:59;33.73;;;17.63;;
20623;SDS011;10471;42.736;23.346;2022-12-18T16:34:32;31.77;;;17.23;;
20623;SDS011;10471;42.736;23.346;2022-12-18T16:37:03;34.27;;;18.50;;
20623;SDS011;10471;42.736;23.346;2022-12-18T16:39:29;33.43;;;18.70;;
20623;SDS011;10471;42.736;23.346;2022-12-18T16:41:56;34.63;;;19.13;;